sensor_id;sensor_type;location;lat;lon;timestamp;temperature;humidity
1025;DHT22;501;48.214;11.350;2023-04-25T00:00:30;9.10;43.00
1025;DHT22;501;48.214;11.350;2023-04-25T00:02:56;9.10;43.20
1025;DHT22;501;48.214;11.350;2023-04-25T00:05:22;9.20;43.40
1025;DHT22;501;48.214;11.350;2023-04-25T00:07:49;9.10;43.40
1025;DHT22;501;48.214;11.350;2023-04-25T00:10:15;9.20;43.20
1025;DHT22;501;48.214;11.350;2023-04-25T00:12:41;9.20;42.50
1025;DHT22;501;48.214;11.350;2023-04-25T00:15:08;9.10;43.50
1025;DHT22;501;48.214;11.350;2023-04-25T00:17:34;9.10;42.30
1025;DHT22;501;48.214;11.350;2023-04-25T00:20:01;9.10;42.70
1025;DHT22;501;48.214;11.350;2023-04-25T00:22:30;9.00;43.20
1025;DHT22;501;48.214;11.350;2023-04-25T00:24:56;9.10;43.90
1025;DHT22;501;48.214;11.350;2023-04-25T00:27:25;9.10;43.50
1025;DHT22;501;48.214;11.350;2023-04-25T00:29:51;9.10;43.00
1025;DHT22;501;48.214;11.350;2023-04-25T00:32:17;9.10;43.20
1025;DHT22;501;48.214;11.350;2023-04-25T00:34:43;9.10;43.30
1025;DHT22;501;48.214;11.350;2023-04-25T00:37:09;9.10;43.10
1025;DHT22;501;48.214;11.350;2023-04-25T00:39:36;9.00;42.90
1025;DHT22;501;48.214;11.350;2023-04-25T00:42:02;9.00;42.90
1025;DHT22;501;48.214;11.350;2023-04-25T00:44:29;9.00;42.70
1025;DHT22;501;48.214;11.350;2023-04-25T00:46:57;9.00;42.80
1025;DHT22;501;48.214;11.350;2023-04-25T00:49:23;9.10;42.60
1025;DHT22;501;48.214;11.350;2023-04-25T00:51:49;9.00;42.80
1025;DHT22;501;48.214;11.350;2023-04-25T00:54:16;9.00;42.70
1025;DHT22;501;48.214;11.350;2023-04-25T00:56:42;9.00;42.70
1025;DHT22;501;48.214;11.350;2023-04-25T00:59:09;8.90;42.30
1025;DHT22;501;48.214;11.350;2023-04-25T01:01:35;9.00;42.80
1025;DHT22;501;48.214;11.350;2023-04-25T01:04:01;8.90;42.70
1025;DHT22;501;48.214;11.350;2023-04-25T01:06:27;8.90;42.00
1025;DHT22;501;48.214;11.350;2023-04-25T01:08:53;8.80;42.60
1025;DHT22;501;48.214;11.350;2023-04-25T01:11:19;8.80;42.90
1025;DHT22;501;48.214;11.350;2023-04-25T01:13:45;8.80;42.90
1025;DHT22;501;48.214;11.350;2023-04-25T01:16:11;8.70;42.70
1025;DHT22;501;48.214;11.350;2023-04-25T01:18:39;8.70;43.60
1025;DHT22;501;48.214;11.350;2023-04-25T01:21:10;8.70;43.40
1025;DHT22;501;48.214;11.350;2023-04-25T01:23:37;8.70;43.60
1025;DHT22;501;48.214;11.350;2023-04-25T01:26:04;8.70;43.60
1025;DHT22;501;48.214;11.350;2023-04-25T01:28:30;8.60;43.60
1025;DHT22;501;48.214;11.350;2023-04-25T01:30:57;8.60;43.30
1025;DHT22;501;48.214;11.350;2023-04-25T01:33:23;8.60;43.60
1025;DHT22;501;48.214;11.350;2023-04-25T01:35:49;8.50;43.50
1025;DHT22;501;48.214;11.350;2023-04-25T01:38:15;8.50;43.50
1025;DHT22;501;48.214;11.350;2023-04-25T01:40:41;8.50;43.60
1025;DHT22;501;48.214;11.350;2023-04-25T01:43:08;8.50;43.60
1025;DHT22;501;48.214;11.350;2023-04-25T01:45:37;8.50;43.40
1025;DHT22;501;48.214;11.350;2023-04-25T01:48:05;8.50;43.70
1025;DHT22;501;48.214;11.350;2023-04-25T01:50:31;8.40;43.40
1025;DHT22;501;48.214;11.350;2023-04-25T01:52:57;8.40;43.40
1025;DHT22;501;48.214;11.350;2023-04-25T01:55:23;8.40;43.60
1025;DHT22;501;48.214;11.350;2023-04-25T01:57:49;8.40;43.90
1025;DHT22;501;48.214;11.350;2023-04-25T02:00:15;8.30;43.90
1025;DHT22;501;48.214;11.350;2023-04-25T02:02:41;8.40;43.90
1025;DHT22;501;48.214;11.350;2023-04-25T02:05:07;8.30;43.90
1025;DHT22;501;48.214;11.350;2023-04-25T02:07:32;8.30;43.60
1025;DHT22;501;48.214;11.350;2023-04-25T02:09:58;8.30;43.80
1025;DHT22;501;48.214;11.350;2023-04-25T02:12:24;8.20;43.70
1025;DHT22;501;48.214;11.350;2023-04-25T02:14:51;8.30;44.30
1025;DHT22;501;48.214;11.350;2023-04-25T02:17:17;8.20;44.40
1025;DHT22;501;48.214;11.350;2023-04-25T02:19:43;8.20;44.70
1025;DHT22;501;48.214;11.350;2023-04-25T02:22:10;8.20;44.60
1025;DHT22;501;48.214;11.350;2023-04-25T02:24:36;8.30;45.20
1025;DHT22;501;48.214;11.350;2023-04-25T02:27:02;8.20;45.30
1025;DHT22;501;48.214;11.350;2023-04-25T02:29:28;8.20;44.90
1025;DHT22;501;48.214;11.350;2023-04-25T02:31:54;8.20;44.80
1025;DHT22;501;48.214;11.350;2023-04-25T02:34:20;8.30;44.70
1025;DHT22;501;48.214;11.350;2023-04-25T02:36:47;8.20;44.80
1025;DHT22;501;48.214;11.350;2023-04-25T02:39:13;8.20;45.10
1025;DHT22;501;48.214;11.350;2023-04-25T02:41:39;8.20;45.10
1025;DHT22;501;48.214;11.350;2023-04-25T02:44:05;8.20;45.30
1025;DHT22;501;48.214;11.350;2023-04-25T02:46:31;8.20;45.60
1025;DHT22;501;48.214;11.350;2023-04-25T02:48:57;8.20;45.50
1025;DHT22;501;48.214;11.350;2023-04-25T02:51:22;8.20;45.70
1025;DHT22;501;48.214;11.350;2023-04-25T02:53:48;8.20;45.60
1025;DHT22;501;48.214;11.350;2023-04-25T02:56:14;8.20;45.80
1025;DHT22;501;48.214;11.350;2023-04-25T02:58:40;8.30;46.50
1025;DHT22;501;48.214;11.350;2023-04-25T03:01:06;8.30;46.50
1025;DHT22;501;48.214;11.350;2023-04-25T03:03:31;8.20;47.70
1025;DHT22;501;48.214;11.350;2023-04-25T03:05:57;8.20;48.40
1025;DHT22;501;48.214;11.350;2023-04-25T03:08:23;8.20;48.40
1025;DHT22;501;48.214;11.350;2023-04-25T03:10:48;8.20;48.40
1025;DHT22;501;48.214;11.350;2023-04-25T03:13:16;8.20;49.30
1025;DHT22;501;48.214;11.350;2023-04-25T03:15:42;8.20;47.70
1025;DHT22;501;48.214;11.350;2023-04-25T03:18:07;8.10;48.40
1025;DHT22;501;48.214;11.350;2023-04-25T03:20:33;8.10;49.00
1025;DHT22;501;48.214;11.350;2023-04-25T03:22:58;8.10;48.50
1025;DHT22;501;48.214;11.350;2023-04-25T03:25:24;8.10;47.90
1025;DHT22;501;48.214;11.350;2023-04-25T03:27:49;8.10;48.40
1025;DHT22;501;48.214;11.350;2023-04-25T03:30:15;8.10;47.90
1025;DHT22;501;48.214;11.350;2023-04-25T03:32:41;8.10;47.60
1025;DHT22;501;48.214;11.350;2023-04-25T03:35:06;8.10;47.30
1025;DHT22;501;48.214;11.350;2023-04-25T03:37:32;8.10;47.70
1025;DHT22;501;48.214;11.350;2023-04-25T03:39:58;8.10;47.70
1025;DHT22;501;48.214;11.350;2023-04-25T03:42:23;8.10;48.40
1025;DHT22;501;48.214;11.350;2023-04-25T03:44:50;8.10;47.40
1025;DHT22;501;48.214;11.350;2023-04-25T03:47:16;8.10;48.30
1025;DHT22;501;48.214;11.350;2023-04-25T03:49:42;8.10;47.50
1025;DHT22;501;48.214;11.350;2023-04-25T03:52:07;8.00;46.40
1025;DHT22;501;48.214;11.350;2023-04-25T03:54:33;8.00;47.10
1025;DHT22;501;48.214;11.350;2023-04-25T03:56:59;8.00;47.10
1025;DHT22;501;48.214;11.350;2023-04-25T03:59:24;8.00;47.80
1025;DHT22;501;48.214;11.350;2023-04-25T04:01:51;8.00;47.20
1025;DHT22;501;48.214;11.350;2023-04-25T04:04:17;8.00;46.40
1025;DHT22;501;48.214;11.350;2023-04-25T04:06:43;8.00;46.90
1025;DHT22;501;48.214;11.350;2023-04-25T04:09:09;7.90;46.50
1025;DHT22;501;48.214;11.350;2023-04-25T04:11:37;7.90;45.70
1025;DHT22;501;48.214;11.350;2023-04-25T04:14:06;7.80;46.10
1025;DHT22;501;48.214;11.350;2023-04-25T04:16:32;7.80;46.10
1025;DHT22;501;48.214;11.350;2023-04-25T04:18:58;7.70;46.40
1025;DHT22;501;48.214;11.350;2023-04-25T04:21:23;7.80;47.00
1025;DHT22;501;48.214;11.350;2023-04-25T04:23:49;7.80;47.60
1025;DHT22;501;48.214;11.350;2023-04-25T04:26:15;7.80;47.80
1025;DHT22;501;48.214;11.350;2023-04-25T04:28:42;7.80;48.10
1025;DHT22;501;48.214;11.350;2023-04-25T04:31:09;7.90;47.50
1025;DHT22;501;48.214;11.350;2023-04-25T04:33:35;7.90;47.70
1025;DHT22;501;48.214;11.350;2023-04-25T04:36:02;7.90;47.20
1025;DHT22;501;48.214;11.350;2023-04-25T04:38:28;7.90;47.30
1025;DHT22;501;48.214;11.350;2023-04-25T04:40:54;7.90;47.40
1025;DHT22;501;48.214;11.350;2023-04-25T04:43:20;7.90;47.40
1025;DHT22;501;48.214;11.350;2023-04-25T04:45:45;8.00;47.30
1025;DHT22;501;48.214;11.350;2023-04-25T04:48:11;7.90;47.80
1025;DHT22;501;48.214;11.350;2023-04-25T04:50:39;8.00;48.30
1025;DHT22;501;48.214;11.350;2023-04-25T04:53:05;8.00;48.40
1025;DHT22;501;48.214;11.350;2023-04-25T04:55:31;8.10;48.40
1025;DHT22;501;48.214;11.350;2023-04-25T04:57:56;8.10;48.30
1025;DHT22;501;48.214;11.350;2023-04-25T05:00:22;8.10;48.40
1025;DHT22;501;48.214;11.350;2023-04-25T05:02:48;8.10;48.40
1025;DHT22;501;48.214;11.350;2023-04-25T05:05:13;8.10;48.40
1025;DHT22;501;48.214;11.350;2023-04-25T05:07:39;8.20;48.40
1025;DHT22;501;48.214;11.350;2023-04-25T05:10:05;8.20;48.40
1025;DHT22;501;48.214;11.350;2023-04-25T05:12:31;8.20;49.20
1025;DHT22;501;48.214;11.350;2023-04-25T05:14:57;8.20;49.10
1025;DHT22;501;48.214;11.350;2023-04-25T05:17:22;8.20;49.30
1025;DHT22;501;48.214;11.350;2023-04-25T05:19:48;8.20;50.00
1025;DHT22;501;48.214;11.350;2023-04-25T05:22:13;8.20;50.00
1025;DHT22;501;48.214;11.350;2023-04-25T05:24:39;8.20;50.00
1025;DHT22;501;48.214;11.350;2023-04-25T05:27:05;8.30;50.20
1025;DHT22;501;48.214;11.350;2023-04-25T05:29:31;8.30;49.30
1025;DHT22;501;48.214;11.350;2023-04-25T05:31:56;8.30;49.70
1025;DHT22;501;48.214;11.350;2023-04-25T05:34:22;8.30;49.30
1025;DHT22;501;48.214;11.350;2023-04-25T05:36:47;8.20;49.70
1025;DHT22;501;48.214;11.350;2023-04-25T05:39:18;8.20;50.70
1025;DHT22;501;48.214;11.350;2023-04-25T05:41:43;8.30;48.50
1025;DHT22;501;48.214;11.350;2023-04-25T05:44:09;8.20;47.60
1025;DHT22;501;48.214;11.350;2023-04-25T05:46:35;8.20;49.40
1025;DHT22;501;48.214;11.350;2023-04-25T05:49:01;8.20;52.30
1025;DHT22;501;48.214;11.350;2023-04-25T05:51:26;8.10;53.20
1025;DHT22;501;48.214;11.350;2023-04-25T05:53:53;8.00;55.20
1025;DHT22;501;48.214;11.350;2023-04-25T05:56:18;8.00;54.60
1025;DHT22;501;48.214;11.350;2023-04-25T05:58:44;7.90;56.80
1025;DHT22;501;48.214;11.350;2023-04-25T06:01:11;7.90;56.70
1025;DHT22;501;48.214;11.350;2023-04-25T06:03:37;7.90;57.50
1025;DHT22;501;48.214;11.350;2023-04-25T06:06:03;7.90;58.50
1025;DHT22;501;48.214;11.350;2023-04-25T06:08:29;7.80;56.70
1025;DHT22;501;48.214;11.350;2023-04-25T06:10:55;7.80;58.20
1025;DHT22;501;48.214;11.350;2023-04-25T06:13:21;7.80;60.30
1025;DHT22;501;48.214;11.350;2023-04-25T06:15:46;7.90;60.50
1025;DHT22;501;48.214;11.350;2023-04-25T06:18:12;7.90;58.60
1025;DHT22;501;48.214;11.350;2023-04-25T06:20:37;7.90;59.20
1025;DHT22;501;48.214;11.350;2023-04-25T06:23:03;7.90;58.30
1025;DHT22;501;48.214;11.350;2023-04-25T06:25:28;8.00;61.00
1025;DHT22;501;48.214;11.350;2023-04-25T06:27:54;8.10;59.80
1025;DHT22;501;48.214;11.350;2023-04-25T06:30:20;8.10;57.40
1025;DHT22;501;48.214;11.350;2023-04-25T06:32:48;8.20;59.40
1025;DHT22;501;48.214;11.350;2023-04-25T06:35:14;8.30;55.80
1025;DHT22;501;48.214;11.350;2023-04-25T06:37:40;8.30;55.40
1025;DHT22;501;48.214;11.350;2023-04-25T06:40:06;8.30;54.80
1025;DHT22;501;48.214;11.350;2023-04-25T06:42:32;8.40;54.80
1025;DHT22;501;48.214;11.350;2023-04-25T06:44:57;8.40;57.70
1025;DHT22;501;48.214;11.350;2023-04-25T06:47:23;8.50;58.10
1025;DHT22;501;48.214;11.350;2023-04-25T06:49:49;8.60;55.20
1025;DHT22;501;48.214;11.350;2023-04-25T06:52:15;8.70;52.40
1025;DHT22;501;48.214;11.350;2023-04-25T06:54:40;8.70;51.80
1025;DHT22;501;48.214;11.350;2023-04-25T06:57:06;8.70;51.50
1025;DHT22;501;48.214;11.350;2023-04-25T06:59:31;8.60;51.70
1025;DHT22;501;48.214;11.350;2023-04-25T07:01:58;8.70;51.20
1025;DHT22;501;48.214;11.350;2023-04-25T07:04:23;8.70;52.10
1025;DHT22;501;48.214;11.350;2023-04-25T07:06:49;8.70;53.50
1025;DHT22;501;48.214;11.350;2023-04-25T07:09:15;8.70;49.80
1025;DHT22;501;48.214;11.350;2023-04-25T07:11:40;8.80;50.50
1025;DHT22;501;48.214;11.350;2023-04-25T07:14:06;8.80;49.50
1025;DHT22;501;48.214;11.350;2023-04-25T07:16:32;8.90;49.00
1025;DHT22;501;48.214;11.350;2023-04-25T07:18:57;8.90;49.10
1025;DHT22;501;48.214;11.350;2023-04-25T07:21:23;9.00;48.10
1025;DHT22;501;48.214;11.350;2023-04-25T07:23:48;9.00;47.70
1025;DHT22;501;48.214;11.350;2023-04-25T07:26:14;9.10;48.00
1025;DHT22;501;48.214;11.350;2023-04-25T07:28:40;9.10;47.00
1025;DHT22;501;48.214;11.350;2023-04-25T07:31:06;9.10;46.90
1025;DHT22;501;48.214;11.350;2023-04-25T07:33:32;9.10;45.90
1025;DHT22;501;48.214;11.350;2023-04-25T07:35:57;9.10;47.00
1025;DHT22;501;48.214;11.350;2023-04-25T07:38:23;9.20;46.30
1025;DHT22;501;48.214;11.350;2023-04-25T07:40:49;9.20;48.00
1025;DHT22;501;48.214;11.350;2023-04-25T07:43:15;9.30;49.70
1025;DHT22;501;48.214;11.350;2023-04-25T07:45:46;9.50;46.80
1025;DHT22;501;48.214;11.350;2023-04-25T07:48:16;9.70;48.70
1025;DHT22;501;48.214;11.350;2023-04-25T07:50:41;9.80;46.60
1025;DHT22;501;48.214;11.350;2023-04-25T07:53:07;9.90;44.40
1025;DHT22;501;48.214;11.350;2023-04-25T07:55:33;10.00;43.20
1025;DHT22;501;48.214;11.350;2023-04-25T07:57:58;10.10;43.40
1025;DHT22;501;48.214;11.350;2023-04-25T08:00:24;10.20;44.30
1025;DHT22;501;48.214;11.350;2023-04-25T08:02:49;10.20;42.40
1025;DHT22;501;48.214;11.350;2023-04-25T08:05:16;10.20;43.60
1025;DHT22;501;48.214;11.350;2023-04-25T08:07:42;10.20;42.20
1025;DHT22;501;48.214;11.350;2023-04-25T08:10:09;10.20;39.80
1025;DHT22;501;48.214;11.350;2023-04-25T08:12:34;10.20;38.20
1025;DHT22;501;48.214;11.350;2023-04-25T08:15:00;10.20;40.80
1025;DHT22;501;48.214;11.350;2023-04-25T08:17:26;10.20;39.20
1025;DHT22;501;48.214;11.350;2023-04-25T08:19:51;10.20;40.30
1025;DHT22;501;48.214;11.350;2023-04-25T08:22:17;10.20;40.40
1025;DHT22;501;48.214;11.350;2023-04-25T08:24:42;10.30;37.90
1025;DHT22;501;48.214;11.350;2023-04-25T08:27:08;10.30;37.20
1025;DHT22;501;48.214;11.350;2023-04-25T08:29:34;10.30;35.90
1025;DHT22;501;48.214;11.350;2023-04-25T08:32:00;10.30;37.20
1025;DHT22;501;48.214;11.350;2023-04-25T08:34:26;10.30;36.70
1025;DHT22;501;48.214;11.350;2023-04-25T08:36:52;10.40;35.90
1025;DHT22;501;48.214;11.350;2023-04-25T08:39:18;10.50;38.00
1025;DHT22;501;48.214;11.350;2023-04-25T08:41:44;10.60;36.80
1025;DHT22;501;48.214;11.350;2023-04-25T08:44:11;10.70;36.60
1025;DHT22;501;48.214;11.350;2023-04-25T08:46:40;10.80;33.00
1025;DHT22;501;48.214;11.350;2023-04-25T08:49:07;10.80;32.00
1025;DHT22;501;48.214;11.350;2023-04-25T08:51:33;10.70;32.10
1025;DHT22;501;48.214;11.350;2023-04-25T08:54:09;10.70;32.40
1025;DHT22;501;48.214;11.350;2023-04-25T08:56:35;10.70;31.70
1025;DHT22;501;48.214;11.350;2023-04-25T08:59:02;10.80;31.80
1025;DHT22;501;48.214;11.350;2023-04-25T09:01:28;10.90;33.00
1025;DHT22;501;48.214;11.350;2023-04-25T09:03:53;10.90;31.90
1025;DHT22;501;48.214;11.350;2023-04-25T09:06:19;10.90;30.10
1025;DHT22;501;48.214;11.350;2023-04-25T09:08:45;11.00;29.90
1025;DHT22;501;48.214;11.350;2023-04-25T09:11:12;11.00;30.10
1025;DHT22;501;48.214;11.350;2023-04-25T09:13:38;11.00;30.80
1025;DHT22;501;48.214;11.350;2023-04-25T09:16:04;11.00;30.10
1025;DHT22;501;48.214;11.350;2023-04-25T09:18:34;11.00;30.30
1025;DHT22;501;48.214;11.350;2023-04-25T09:21:11;11.10;30.90
1025;DHT22;501;48.214;11.350;2023-04-25T09:23:54;11.10;30.40
1025;DHT22;501;48.214;11.350;2023-04-25T09:26:21;11.10;32.10
1025;DHT22;501;48.214;11.350;2023-04-25T09:28:47;11.10;30.40
1025;DHT22;501;48.214;11.350;2023-04-25T09:31:22;11.20;32.10
1025;DHT22;501;48.214;11.350;2023-04-25T09:33:59;11.30;30.70
1025;DHT22;501;48.214;11.350;2023-04-25T09:36:26;11.40;30.40
1025;DHT22;501;48.214;11.350;2023-04-25T09:38:52;11.60;32.50
1025;DHT22;501;48.214;11.350;2023-04-25T09:41:23;11.80;32.70
1025;DHT22;501;48.214;11.350;2023-04-25T09:43:49;11.90;29.80
1025;DHT22;501;48.214;11.350;2023-04-25T09:46:16;12.00;29.40
1025;DHT22;501;48.214;11.350;2023-04-25T09:48:49;12.10;31.10
1025;DHT22;501;48.214;11.350;2023-04-25T09:51:15;12.20;29.70
1025;DHT22;501;48.214;11.350;2023-04-25T09:53:43;12.40;28.90
1025;DHT22;501;48.214;11.350;2023-04-25T09:56:11;12.60;28.80
1025;DHT22;501;48.214;11.350;2023-04-25T09:58:39;12.60;26.90
1025;DHT22;501;48.214;11.350;2023-04-25T10:01:06;12.60;26.90
1025;DHT22;501;48.214;11.350;2023-04-25T10:03:34;12.70;27.80
1025;DHT22;501;48.214;11.350;2023-04-25T10:06:06;12.80;26.40
1025;DHT22;501;48.214;11.350;2023-04-25T10:08:36;12.70;27.00
1025;DHT22;501;48.214;11.350;2023-04-25T10:11:08;12.50;27.70
1025;DHT22;501;48.214;11.350;2023-04-25T10:13:35;12.50;28.10
1025;DHT22;501;48.214;11.350;2023-04-25T10:16:03;12.50;29.20
1025;DHT22;501;48.214;11.350;2023-04-25T10:18:30;12.70;28.70
1025;DHT22;501;48.214;11.350;2023-04-25T10:21:01;12.60;29.60
1025;DHT22;501;48.214;11.350;2023-04-25T10:23:29;12.70;28.30
1025;DHT22;501;48.214;11.350;2023-04-25T10:25:55;12.70;28.80
1025;DHT22;501;48.214;11.350;2023-04-25T10:28:22;12.40;29.00
1025;DHT22;501;48.214;11.350;2023-04-25T10:31:04;12.20;29.70
1025;DHT22;501;48.214;11.350;2023-04-25T10:36:15;11.50;31.70
1025;DHT22;501;48.214;11.350;2023-04-25T10:38:43;11.30;35.20
1025;DHT22;501;48.214;11.350;2023-04-25T10:41:10;11.10;38.20
1025;DHT22;501;48.214;11.350;2023-04-25T10:43:41;10.90;37.80
1025;DHT22;501;48.214;11.350;2023-04-25T10:46:34;10.80;39.70
1025;DHT22;501;48.214;11.350;2023-04-25T10:49:02;10.70;42.20
1025;DHT22;501;48.214;11.350;2023-04-25T10:51:32;10.60;44.70
1025;DHT22;501;48.214;11.350;2023-04-25T10:56:30;10.50;42.50
1025;DHT22;501;48.214;11.350;2023-04-25T10:59:11;10.60;42.80
1025;DHT22;501;48.214;11.350;2023-04-25T11:01:42;10.60;42.50
1025;DHT22;501;48.214;11.350;2023-04-25T11:04:28;10.70;38.10
1025;DHT22;501;48.214;11.350;2023-04-25T11:09:38;10.80;38.50
1025;DHT22;501;48.214;11.350;2023-04-25T11:12:04;10.80;34.60
1025;DHT22;501;48.214;11.350;2023-04-25T11:14:30;10.90;34.50
1025;DHT22;501;48.214;11.350;2023-04-25T11:16:57;10.90;33.40
1025;DHT22;501;48.214;11.350;2023-04-25T11:19:24;10.90;34.00
1025;DHT22;501;48.214;11.350;2023-04-25T11:21:50;10.90;35.70
1025;DHT22;501;48.214;11.350;2023-04-25T11:24:17;10.90;37.80
1025;DHT22;501;48.214;11.350;2023-04-25T11:26:43;10.80;37.20
1025;DHT22;501;48.214;11.350;2023-04-25T11:29:12;10.80;38.60
1025;DHT22;501;48.214;11.350;2023-04-25T11:31:38;10.90;38.60
1025;DHT22;501;48.214;11.350;2023-04-25T11:34:04;11.00;37.50
1025;DHT22;501;48.214;11.350;2023-04-25T11:36:42;11.00;40.10
1025;DHT22;501;48.214;11.350;2023-04-25T11:39:20;10.90;38.20
1025;DHT22;501;48.214;11.350;2023-04-25T11:41:46;10.90;42.10
1025;DHT22;501;48.214;11.350;2023-04-25T11:50:28;10.00;48.90
1025;DHT22;501;48.214;11.350;2023-04-25T11:52:56;9.90;48.30
1025;DHT22;501;48.214;11.350;2023-04-25T11:55:26;9.80;50.30
1025;DHT22;501;48.214;11.350;2023-04-25T11:57:55;9.70;53.20
1025;DHT22;501;48.214;11.350;2023-04-25T12:00:26;9.60;53.80
1025;DHT22;501;48.214;11.350;2023-04-25T12:02:54;9.50;52.60
1025;DHT22;501;48.214;11.350;2023-04-25T12:05:23;9.40;54.70
1025;DHT22;501;48.214;11.350;2023-04-25T12:07:49;9.40;56.10
1025;DHT22;501;48.214;11.350;2023-04-25T12:10:17;9.30;52.60
1025;DHT22;501;48.214;11.350;2023-04-25T12:12:47;9.20;53.60
1025;DHT22;501;48.214;11.350;2023-04-25T12:15:25;9.20;54.20
1025;DHT22;501;48.214;11.350;2023-04-25T12:18:28;9.10;55.30
1025;DHT22;501;48.214;11.350;2023-04-25T12:21:04;9.00;55.00
1025;DHT22;501;48.214;11.350;2023-04-25T12:23:30;9.00;57.00
1025;DHT22;501;48.214;11.350;2023-04-25T12:25:56;9.00;59.60
1025;DHT22;501;48.214;11.350;2023-04-25T12:28:24;9.00;58.20
1025;DHT22;501;48.214;11.350;2023-04-25T12:31:01;9.00;55.00
1025;DHT22;501;48.214;11.350;2023-04-25T12:33:29;9.10;57.70
1025;DHT22;501;48.214;11.350;2023-04-25T12:35:55;9.00;57.20
1025;DHT22;501;48.214;11.350;2023-04-25T12:38:29;9.10;59.10
1025;DHT22;501;48.214;11.350;2023-04-25T12:40:56;9.10;54.70
1025;DHT22;501;48.214;11.350;2023-04-25T12:43:22;9.10;57.60
1025;DHT22;501;48.214;11.350;2023-04-25T12:45:52;9.00;56.10
1025;DHT22;501;48.214;11.350;2023-04-25T12:48:18;9.00;56.40
1025;DHT22;501;48.214;11.350;2023-04-25T12:50:44;9.00;54.80
1025;DHT22;501;48.214;11.350;2023-04-25T12:53:13;9.00;56.90
1025;DHT22;501;48.214;11.350;2023-04-25T12:55:38;9.00;56.60
1025;DHT22;501;48.214;11.350;2023-04-25T12:58:04;8.90;55.60
1025;DHT22;501;48.214;11.350;2023-04-25T13:00:30;8.80;55.90
1025;DHT22;501;48.214;11.350;2023-04-25T13:02:56;8.70;55.10
1025;DHT22;501;48.214;11.350;2023-04-25T13:05:21;8.50;54.00
1025;DHT22;501;48.214;11.350;2023-04-25T13:07:47;8.40;56.60
1025;DHT22;501;48.214;11.350;2023-04-25T13:10:13;8.30;56.60
1025;DHT22;501;48.214;11.350;2023-04-25T13:12:38;8.00;57.60
1025;DHT22;501;48.214;11.350;2023-04-25T13:15:04;7.90;58.50
1025;DHT22;501;48.214;11.350;2023-04-25T13:17:30;7.80;61.90
1025;DHT22;501;48.214;11.350;2023-04-25T13:19:56;7.80;62.70
1025;DHT22;501;48.214;11.350;2023-04-25T13:22:21;7.70;60.70
1025;DHT22;501;48.214;11.350;2023-04-25T13:24:47;7.70;64.90
1025;DHT22;501;48.214;11.350;2023-04-25T13:27:13;7.70;66.40
1025;DHT22;501;48.214;11.350;2023-04-25T13:29:39;7.70;66.20
1025;DHT22;501;48.214;11.350;2023-04-25T13:32:06;7.70;69.20
1025;DHT22;501;48.214;11.350;2023-04-25T13:34:32;7.80;71.30
1025;DHT22;501;48.214;11.350;2023-04-25T13:36:57;7.90;72.80
1025;DHT22;501;48.214;11.350;2023-04-25T13:39:23;8.00;69.40
1025;DHT22;501;48.214;11.350;2023-04-25T13:41:48;8.10;66.70
1025;DHT22;501;48.214;11.350;2023-04-25T13:44:14;8.00;64.10
1025;DHT22;501;48.214;11.350;2023-04-25T13:46:40;8.00;66.10
1025;DHT22;501;48.214;11.350;2023-04-25T13:49:05;8.10;66.90
1025;DHT22;501;48.214;11.350;2023-04-25T13:51:31;8.10;70.50
1025;DHT22;501;48.214;11.350;2023-04-25T13:53:57;8.20;69.30
1025;DHT22;501;48.214;11.350;2023-04-25T13:56:23;8.30;67.90
1025;DHT22;501;48.214;11.350;2023-04-25T13:58:50;8.40;66.70
1025;DHT22;501;48.214;11.350;2023-04-25T14:01:17;8.50;62.80
1025;DHT22;501;48.214;11.350;2023-04-25T14:03:43;8.60;60.40
1025;DHT22;501;48.214;11.350;2023-04-25T14:06:08;8.70;63.30
1025;DHT22;501;48.214;11.350;2023-04-25T14:08:34;8.70;58.80
1025;DHT22;501;48.214;11.350;2023-04-25T14:11:00;8.70;58.70
1025;DHT22;501;48.214;11.350;2023-04-25T14:13:26;8.70;63.00
1025;DHT22;501;48.214;11.350;2023-04-25T14:15:52;8.80;64.30
1025;DHT22;501;48.214;11.350;2023-04-25T14:18:18;8.80;61.50
1025;DHT22;501;48.214;11.350;2023-04-25T14:20:44;8.90;62.60
1025;DHT22;501;48.214;11.350;2023-04-25T14:23:10;8.90;62.40
1025;DHT22;501;48.214;11.350;2023-04-25T14:25:36;8.90;57.60
1025;DHT22;501;48.214;11.350;2023-04-25T14:28:02;8.90;60.30
1025;DHT22;501;48.214;11.350;2023-04-25T14:30:28;9.00;58.70
1025;DHT22;501;48.214;11.350;2023-04-25T14:32:53;9.00;60.50
1025;DHT22;501;48.214;11.350;2023-04-25T14:35:19;9.00;59.00
1025;DHT22;501;48.214;11.350;2023-04-25T14:37:45;9.00;57.60
1025;DHT22;501;48.214;11.350;2023-04-25T14:40:11;9.00;59.40
1025;DHT22;501;48.214;11.350;2023-04-25T14:42:39;9.10;59.20
1025;DHT22;501;48.214;11.350;2023-04-25T14:45:06;9.10;59.50
1025;DHT22;501;48.214;11.350;2023-04-25T14:47:32;9.20;60.20
1025;DHT22;501;48.214;11.350;2023-04-25T14:49:58;9.20;59.50
1025;DHT22;501;48.214;11.350;2023-04-25T14:52:24;9.20;60.60
1025;DHT22;501;48.214;11.350;2023-04-25T14:54:51;9.30;58.50
1025;DHT22;501;48.214;11.350;2023-04-25T14:57:17;9.40;59.50
1025;DHT22;501;48.214;11.350;2023-04-25T14:59:42;9.50;61.40
1025;DHT22;501;48.214;11.350;2023-04-25T15:02:08;9.50;56.20
1025;DHT22;501;48.214;11.350;2023-04-25T15:04:34;9.60;60.50
1025;DHT22;501;48.214;11.350;2023-04-25T15:06:59;9.80;61.10
1025;DHT22;501;48.214;11.350;2023-04-25T15:09:25;10.10;59.30
1025;DHT22;501;48.214;11.350;2023-04-25T15:11:51;10.50;61.90
1025;DHT22;501;48.214;11.350;2023-04-25T15:14:17;10.90;56.40
1025;DHT22;501;48.214;11.350;2023-04-25T15:16:43;11.00;50.60
1025;DHT22;501;48.214;11.350;2023-04-25T15:19:08;10.80;45.10
1025;DHT22;501;48.214;11.350;2023-04-25T15:21:34;10.60;47.90
1025;DHT22;501;48.214;11.350;2023-04-25T15:24:00;10.40;47.10
1025;DHT22;501;48.214;11.350;2023-04-25T15:26:27;10.30;46.60
1025;DHT22;501;48.214;11.350;2023-04-25T15:28:53;10.20;47.70
1025;DHT22;501;48.214;11.350;2023-04-25T15:31:19;10.10;50.20
1025;DHT22;501;48.214;11.350;2023-04-25T15:33:45;10.10;49.40
1025;DHT22;501;48.214;11.350;2023-04-25T15:36:11;10.00;50.50
1025;DHT22;501;48.214;11.350;2023-04-25T15:38:36;10.00;50.10
1025;DHT22;501;48.214;11.350;2023-04-25T15:41:02;10.00;48.10
1025;DHT22;501;48.214;11.350;2023-04-25T15:43:28;9.80;48.10
1025;DHT22;501;48.214;11.350;2023-04-25T15:45:54;9.70;49.40
1025;DHT22;501;48.214;11.350;2023-04-25T15:48:20;9.60;48.30
1025;DHT22;501;48.214;11.350;2023-04-25T15:50:46;9.40;49.40
1025;DHT22;501;48.214;11.350;2023-04-25T15:53:11;9.40;52.00
1025;DHT22;501;48.214;11.350;2023-04-25T15:55:38;9.30;50.40
1025;DHT22;501;48.214;11.350;2023-04-25T15:58:04;9.20;52.50
1025;DHT22;501;48.214;11.350;2023-04-25T16:00:29;9.10;50.00
1025;DHT22;501;48.214;11.350;2023-04-25T16:02:55;9.00;51.50
1025;DHT22;501;48.214;11.350;2023-04-25T16:05:21;8.90;53.00
1025;DHT22;501;48.214;11.350;2023-04-25T16:07:47;8.90;53.60
1025;DHT22;501;48.214;11.350;2023-04-25T16:10:13;8.90;56.00
1025;DHT22;501;48.214;11.350;2023-04-25T16:12:44;8.90;57.60
1025;DHT22;501;48.214;11.350;2023-04-25T16:15:12;8.90;59.00
1025;DHT22;501;48.214;11.350;2023-04-25T16:17:37;9.00;56.10
1025;DHT22;501;48.214;11.350;2023-04-25T16:20:03;9.00;55.80
1025;DHT22;501;48.214;11.350;2023-04-25T16:22:35;9.00;56.20
1025;DHT22;501;48.214;11.350;2023-04-25T16:25:02;9.10;56.00